createdAt,value
2018-12-12T00:02:15.286Z,0.80
2018-12-12T00:04:50.036Z,0.70
2018-12-12T00:07:26.081Z,1.83
2018-12-12T00:10:03.377Z,0.60
2018-12-12T00:12:42.939Z,2.30
2018-12-12T00:15:16.735Z,0.67
2018-12-12T00:17:49.287Z,1.33
2018-12-12T00:20:24.971Z,1.43
2018-12-12T00:23:01.612Z,0.60
2018-12-12T00:25:33.856Z,0.97
2018-12-12T00:28:05.512Z,1.07
2018-12-12T00:30:37.776Z,1.10
2018-12-12T00:33:13.294Z,1.03
2018-12-12T00:35:45.006Z,0.80
2018-12-12T00:38:18.359Z,0.50
2018-12-12T00:40:50.185Z,0.63
2018-12-12T00:43:24.568Z,1.00
2018-12-12T00:45:57.337Z,0.80
2018-12-12T00:48:31.666Z,0.60
2018-12-12T00:51:03.375Z,0.70
2018-12-12T00:53:37.851Z,0.60
2018-12-12T00:56:09.849Z,0.87
2018-12-12T00:58:41.735Z,0.60
2018-12-12T01:01:14.261Z,1.80
2018-12-12T01:03:48.333Z,0.70
2018-12-12T01:06:19.985Z,1.30
2018-12-12T01:09:02.797Z,0.80
2018-12-12T01:11:40.121Z,0.70
2018-12-12T01:14:14.095Z,0.70
2018-12-12T01:16:45.893Z,1.27
2018-12-12T01:19:18.045Z,0.60
2018-12-12T01:21:53.573Z,1.07
2018-12-12T01:24:25.093Z,0.83
2018-12-12T01:26:57.373Z,1.10
2018-12-12T01:29:29.281Z,0.60
2018-12-12T01:32:03.845Z,1.37
2018-12-12T01:34:42.640Z,0.70
2018-12-12T01:37:17.894Z,0.73
2018-12-12T01:39:50.453Z,1.30
2018-12-12T01:42:23.397Z,0.60
2018-12-12T01:44:55.835Z,1.20
2018-12-12T01:47:30.261Z,1.23
2018-12-12T01:50:02.947Z,1.10
2018-12-12T01:52:37.790Z,0.60
2018-12-12T01:55:09.673Z,1.30
2018-12-12T01:57:42.246Z,1.10
2018-12-12T02:00:16.362Z,1.47
2018-12-12T02:02:50.511Z,0.90
2018-12-12T02:05:24.828Z,1.03
2018-12-12T02:07:59.416Z,1.70
2018-12-12T02:10:33.744Z,0.60
2018-12-12T02:13:14.261Z,0.80
2018-12-12T02:15:48.544Z,0.60
2018-12-12T02:18:20.378Z,1.53
2018-12-12T02:20:52.761Z,0.60
2018-12-12T02:23:27.570Z,1.10
2018-12-12T02:28:55.564Z,1.67
2018-12-12T02:31:30.665Z,0.60
2018-12-12T02:34:06.007Z,1.30
2018-12-12T02:36:46.497Z,1.20
2018-12-12T02:39:18.404Z,0.60
2018-12-12T02:42:00.364Z,1.70
2018-12-12T02:44:33.630Z,1.47
2018-12-12T02:47:13.032Z,0.97
2018-12-12T02:49:49.183Z,0.80
2018-12-12T02:52:25.116Z,1.73
2018-12-12T02:54:59.825Z,0.80
2018-12-12T02:57:34.713Z,1.07
2018-12-12T03:00:16.005Z,0.60
2018-12-12T03:02:55.051Z,1.10
2018-12-12T03:05:30.774Z,0.67
2018-12-12T03:08:10.540Z,0.90
2018-12-12T03:10:49.270Z,1.80
2018-12-12T03:13:20.851Z,0.80
2018-12-12T03:16:01.988Z,1.00
2018-12-12T03:18:36.550Z,0.60
2018-12-12T03:21:11.534Z,0.93
2018-12-12T03:23:47.502Z,0.70
2018-12-12T03:26:25.661Z,1.60
2018-12-12T03:29:01.943Z,0.70
2018-12-12T03:31:36.441Z,0.70
2018-12-12T03:37:02.239Z,1.00
2018-12-12T03:39:37.829Z,1.20
2018-12-12T03:42:12.583Z,0.60
2018-12-12T03:44:47.948Z,4.40
2018-12-12T03:47:23.256Z,3.97
2018-12-12T03:50:00.230Z,5.03
2018-12-12T03:52:43.427Z,3.60
2018-12-12T03:55:15.996Z,3.93
2018-12-12T03:57:56.577Z,3.77
2018-12-12T04:00:32.245Z,2.67
2018-12-12T04:03:14.194Z,5.10
2018-12-12T04:08:41.809Z,3.23
2018-12-12T04:11:18.425Z,4.83
2018-12-12T04:13:50.845Z,4.43
2018-12-12T04:16:22.861Z,5.30
2018-12-12T04:18:56.439Z,4.70
2018-12-12T04:21:28.982Z,3.63
2018-12-12T04:24:03.929Z,2.87
2018-12-12T04:26:36.277Z,3.40
2018-12-12T04:29:10.543Z,4.93
2018-12-12T04:31:45.964Z,5.00
2018-12-12T04:34:20.331Z,5.20
2018-12-12T04:36:54.245Z,2.47
2018-12-12T04:39:29.357Z,5.37
2018-12-12T04:42:04.320Z,3.40
2018-12-12T04:44:39.594Z,3.60
2018-12-12T04:47:15.045Z,5.07
2018-12-12T04:49:51.712Z,4.30
2018-12-12T04:52:25.829Z,4.37
2018-12-12T04:54:57.660Z,4.80
2018-12-12T04:57:27.907Z,3.80
2018-12-12T05:00:06.122Z,5.00
2018-12-12T05:05:07.395Z,5.13
2018-12-12T05:07:40.607Z,4.37
2018-12-12T05:10:12.306Z,3.40
2018-12-12T05:12:44.527Z,4.73
2018-12-12T05:15:21.401Z,3.50
2018-12-12T05:17:56.056Z,4.30
2018-12-12T05:20:30.244Z,4.50
2018-12-12T05:23:05.600Z,3.20
2018-12-12T05:25:40.154Z,2.43
2018-12-12T05:28:14.080Z,5.20
2018-12-12T05:30:48.257Z,4.40
2018-12-12T05:33:19.972Z,5.67
2018-12-12T05:35:54.652Z,5.40
2018-12-12T05:38:28.564Z,3.33
2018-12-12T05:41:02.603Z,2.33
2018-12-12T05:43:36.718Z,4.03
2018-12-12T05:46:10.857Z,4.50
2018-12-12T05:48:45.100Z,3.60
2018-12-12T05:51:31.428Z,3.33
2018-12-12T05:54:22.254Z,4.30
2018-12-12T05:56:52.444Z,3.90
2018-12-12T05:59:26.627Z,4.00
2018-12-12T06:01:59.350Z,3.03
2018-12-12T06:04:34.068Z,3.77
2018-12-12T06:07:06.546Z,2.73
2018-12-12T06:09:40.976Z,2.60
2018-12-12T06:12:19.988Z,3.20
2018-12-12T06:14:54.441Z,3.70
2018-12-12T06:17:32.514Z,3.70
2018-12-12T06:20:11.429Z,1.20
2018-12-12T06:22:40.595Z,3.25
2018-12-12T06:25:09.342Z,3.40
2018-12-12T06:27:38.004Z,3.00
2018-12-12T06:30:07.735Z,3.57
2018-12-12T06:32:36.737Z,4.33
2018-12-12T06:35:06.291Z,2.93
2018-12-12T06:37:35.041Z,3.93
2018-12-12T06:40:10.643Z,3.40
2018-12-12T06:42:40.605Z,3.40
2018-12-12T06:45:09.571Z,3.30
2018-12-12T06:47:38.280Z,4.07
2018-12-12T06:50:23.014Z,3.07
2018-12-12T06:55:51.769Z,2.70
2018-12-12T06:58:30.171Z,3.40
2018-12-12T07:00:59.965Z,3.43
2018-12-12T07:03:34.290Z,4.07
2018-12-12T07:06:22.214Z,3.60
2018-12-12T07:09:07.438Z,3.80
2018-12-12T07:11:55.230Z,3.50
2018-12-12T07:14:25.321Z,3.80
2018-12-12T07:17:00.438Z,3.80
2018-12-12T07:19:43.984Z,4.20
2018-12-12T07:22:15.667Z,2.30
2018-12-12T07:24:45.376Z,4.37
2018-12-12T07:27:17.639Z,5.23
2018-12-12T07:29:51.882Z,3.47
2018-12-12T07:32:26.283Z,3.30
2018-12-12T07:35:01.576Z,4.20
2018-12-12T07:37:33.520Z,2.90
2018-12-12T07:40:08.228Z,3.90
2018-12-12T07:42:43.022Z,4.00
2018-12-12T07:45:21.886Z,4.60
2018-12-12T07:48:01.393Z,4.63
2018-12-12T07:50:30.851Z,3.70
2018-12-12T07:52:59.883Z,3.60
2018-12-12T07:58:25.730Z,5.70
2018-12-12T08:01:04.357Z,5.27
2018-12-12T08:03:36.465Z,5.20
2018-12-12T08:06:11.116Z,4.50
2018-12-12T08:08:45.962Z,4.23
2018-12-12T08:11:19.968Z,5.00
2018-12-12T08:13:53.990Z,4.83
2018-12-12T08:16:23.072Z,4.60
2018-12-12T08:18:57.612Z,5.50
2018-12-12T08:21:31.664Z,4.70
2018-12-12T08:24:05.681Z,3.93
2018-12-12T08:26:46.661Z,3.60
2018-12-12T08:29:16.120Z,5.27
2018-12-12T08:31:46.142Z,4.70
2018-12-12T08:34:26.966Z,5.70
2018-12-12T08:37:00.964Z,4.37
2018-12-12T08:39:41.722Z,3.63
2018-12-12T08:42:13.642Z,4.43
2018-12-12T08:44:51.796Z,5.47
2018-12-12T08:47:20.428Z,4.60
2018-12-12T08:49:52.741Z,4.20
2018-12-12T08:55:21.478Z,4.63
2018-12-12T08:58:02.164Z,4.93
2018-12-12T09:00:36.746Z,4.30
2018-12-12T09:06:09.498Z,4.50
2018-12-12T09:08:47.841Z,4.13
2018-12-12T09:11:22.906Z,5.40
2018-12-12T09:13:55.292Z,4.03
2018-12-12T09:16:23.952Z,5.47
2018-12-12T09:18:53.825Z,6.00
2018-12-12T09:21:35.837Z,5.23
2018-12-12T09:24:10.131Z,5.83
2018-12-12T09:26:42.461Z,5.87
2018-12-12T09:29:17.116Z,3.97
2018-12-12T09:31:54.220Z,3.90
2018-12-12T09:34:29.692Z,6.97
2018-12-12T09:37:06.119Z,6.90
2018-12-12T09:39:43.410Z,4.80
2018-12-12T09:42:24.881Z,4.50
2018-12-12T09:44:59.930Z,5.13
2018-12-12T09:47:36.140Z,5.80
2018-12-12T09:50:10.928Z,6.87
2018-12-12T09:55:41.431Z,5.90
2018-12-12T09:58:16.020Z,6.03
2018-12-12T10:00:54.676Z,5.47
2018-12-12T10:03:31.345Z,5.33
2018-12-12T10:06:04.492Z,6.63
2018-12-12T10:08:45.604Z,6.80
2018-12-12T10:11:14.207Z,6.97
2018-12-12T10:13:48.345Z,7.27
2018-12-12T10:16:39.645Z,7.77
2018-12-12T10:22:12.343Z,7.70
2018-12-12T10:24:44.939Z,5.93
2018-12-12T10:27:19.809Z,5.90
2018-12-12T10:29:52.355Z,7.00
2018-12-12T10:32:26.768Z,6.43
2018-12-12T10:35:00.771Z,5.90
2018-12-12T10:37:47.241Z,6.00
2018-12-12T10:40:18.999Z,6.13
2018-12-12T10:42:47.855Z,7.97
2018-12-12T10:45:34.633Z,6.40
2018-12-12T10:48:03.346Z,5.43
2018-12-12T10:50:35.313Z,5.43
2018-12-12T10:53:10.606Z,6.97
2018-12-12T10:55:44.531Z,5.27
2018-12-12T10:58:18.539Z,5.80
2018-12-12T11:01:02.587Z,8.03
2018-12-12T11:03:44.594Z,6.50
2018-12-12T11:06:19.089Z,6.23
2018-12-12T11:08:47.833Z,6.97
2018-12-12T11:11:38.781Z,6.50
2018-12-12T11:14:13.019Z,5.60
2018-12-12T11:16:41.792Z,6.63
2018-12-12T11:19:17.114Z,6.23
2018-12-12T11:21:57.749Z,7.90
2018-12-12T11:24:29.947Z,7.10
2018-12-12T11:29:54.980Z,5.10
2018-12-12T11:32:26.940Z,5.80
2018-12-12T11:34:55.673Z,6.27
2018-12-12T11:37:29.728Z,6.90
2018-12-12T11:40:05.832Z,6.80
2018-12-12T11:42:38.109Z,7.17
2018-12-12T11:45:18.513Z,5.93
2018-12-12T11:47:53.034Z,6.47
2018-12-12T11:50:21.491Z,6.73
2018-12-12T11:52:50.224Z,7.13
2018-12-12T11:58:15.889Z,7.07
2018-12-12T12:03:47.867Z,7.37
2018-12-12T12:06:18.139Z,7.97
2018-12-12T12:08:49.803Z,6.50
2018-12-12T12:11:18.901Z,6.27
2018-12-12T12:14:00.083Z,6.60
2018-12-12T12:16:33.951Z,5.80
2018-12-12T12:19:08.027Z,7.60
2018-12-12T12:21:38.471Z,6.30
2018-12-12T12:24:08.255Z,7.90
2018-12-12T12:26:42.128Z,7.63
2018-12-12T12:29:18.626Z,7.67
2018-12-12T12:31:52.855Z,6.00
2018-12-12T12:34:25.277Z,4.77
2018-12-12T12:36:53.791Z,6.90
2018-12-12T12:39:26.335Z,7.20
2018-12-12T12:42:02.655Z,7.47
2018-12-12T12:44:37.807Z,6.50
2018-12-12T12:47:14.415Z,8.17
2018-12-12T12:49:49.401Z,6.70
2018-12-12T12:52:30.593Z,6.80
2018-12-12T12:54:59.101Z,6.73
2018-12-12T12:57:41.939Z,5.33
2018-12-12T13:00:20.339Z,5.97
2018-12-12T13:02:54.371Z,5.93
2018-12-12T13:05:29.305Z,6.30
2018-12-12T13:08:11.247Z,6.30
2018-12-12T13:10:58.649Z,6.07
2018-12-12T13:13:33.551Z,6.07
2018-12-12T13:16:08.661Z,7.70
2018-12-12T13:18:43.915Z,5.80
2018-12-12T13:21:19.856Z,6.87
2018-12-12T13:23:51.527Z,7.00
2018-12-12T13:26:27.654Z,6.30
2018-12-12T13:28:59.409Z,6.13
2018-12-12T13:31:33.838Z,6.83
2018-12-12T13:34:16.067Z,6.70
2018-12-12T13:36:46.099Z,6.93
2018-12-12T13:39:20.077Z,6.17
2018-12-12T13:41:52.604Z,6.47
2018-12-12T13:44:24.729Z,6.33
2018-12-12T13:46:55.332Z,6.83
2018-12-12T13:49:34.344Z,7.60
2018-12-12T13:52:14.036Z,7.17
2018-12-12T13:54:47.949Z,7.13
2018-12-12T13:57:20.722Z,6.60
2018-12-12T13:59:54.991Z,7.90
2018-12-12T14:02:34.930Z,7.60
2018-12-12T14:05:16.062Z,8.73
2018-12-12T14:07:50.880Z,7.70
2018-12-12T14:10:25.141Z,8.90
2018-12-12T14:12:59.937Z,8.67
2018-12-12T14:15:35.316Z,8.87
2018-12-12T14:18:14.971Z,7.60
2018-12-12T14:20:55.706Z,7.73
2018-12-12T14:23:37.196Z,7.37
2018-12-12T14:26:14.019Z,7.50
2018-12-12T14:28:55.976Z,7.80
2018-12-12T14:31:33.992Z,6.43
2018-12-12T14:34:11.466Z,8.00
2018-12-12T14:36:54.380Z,7.37
2018-12-12T14:39:29.506Z,8.97
2018-12-12T14:42:03.946Z,6.60
2018-12-12T14:44:38.888Z,6.83
2018-12-12T14:47:13.288Z,6.83
2018-12-12T14:49:47.634Z,6.93
2018-12-12T14:52:22.395Z,5.93
2018-12-12T14:58:17.067Z,6.87
2018-12-12T15:03:45.717Z,8.60
2018-12-12T15:06:24.750Z,8.50
2018-12-12T15:09:05.569Z,6.40
2018-12-12T15:11:42.714Z,8.00
2018-12-12T15:14:17.221Z,8.57
2018-12-12T15:16:49.858Z,7.73
2018-12-12T15:19:30.792Z,8.13
2018-12-12T15:22:22.492Z,7.37
2018-12-12T15:25:03.893Z,7.30
2018-12-12T15:27:40.326Z,2.83
2018-12-12T15:33:07.324Z,9.80
2018-12-12T15:35:42.136Z,14.10
2018-12-12T15:38:16.115Z,16.43
2018-12-12T15:40:58.640Z,15.57
2018-12-12T15:43:38.218Z,10.93
2018-12-12T15:46:14.176Z,11.77
2018-12-12T15:48:48.864Z,11.60
2018-12-12T15:51:24.178Z,10.73
2018-12-12T15:53:59.780Z,14.60
2018-12-12T15:56:34.328Z,9.87
2018-12-12T15:59:09.110Z,8.23
2018-12-12T16:01:44.373Z,6.70
2018-12-12T16:04:30.966Z,8.70
2018-12-12T16:10:13.649Z,8.57
2018-12-12T16:12:51.222Z,8.20
2018-12-12T16:15:23.830Z,9.17
2018-12-12T16:17:59.775Z,8.37
2018-12-12T16:20:40.436Z,10.55
2018-12-12T16:23:14.194Z,9.27
2018-12-12T16:25:49.666Z,10.13
2018-12-12T16:28:38.530Z,11.73
2018-12-12T16:31:16.024Z,10.67
2018-12-12T16:34:01.342Z,12.70
2018-12-12T16:36:49.512Z,12.30
2018-12-12T16:39:20.176Z,1.33
2018-12-12T16:41:56.342Z,1.63
2018-12-12T16:44:39.918Z,0.50
2018-12-12T16:47:13.259Z,0.50
2018-12-12T16:49:45.664Z,3.23
2018-12-12T16:52:23.913Z,0.50
2018-12-12T16:57:49.046Z,0.70
2018-12-12T17:00:18.026Z,0.60
2018-12-12T17:02:52.336Z,0.67
2018-12-12T17:05:27.013Z,0.60
2018-12-12T17:08:01.208Z,0.60
2018-12-12T17:10:44.799Z,0.60
2018-12-12T17:16:06.975Z,0.50
2018-12-12T17:18:41.154Z,0.50
2018-12-12T17:24:24.808Z,0.70
2018-12-12T17:27:00.552Z,0.60
2018-12-12T17:29:34.808Z,0.60
2018-12-12T17:32:08.978Z,1.80
2018-12-12T17:37:23.536Z,0.60
2018-12-12T17:39:58.131Z,0.80
2018-12-12T17:42:36.746Z,0.60
2018-12-12T17:45:09.132Z,0.80
2018-12-12T17:47:41.188Z,0.70
2018-12-12T17:50:15.842Z,0.60
2018-12-12T17:52:48.345Z,2.30
2018-12-12T17:55:20.198Z,0.70
2018-12-12T17:58:00.766Z,0.70
2018-12-12T18:00:35.449Z,0.70
2018-12-12T18:06:08.388Z,1.33
2018-12-12T18:08:37.120Z,0.90
2018-12-12T18:14:04.846Z,3.70
2018-12-12T18:16:39.273Z,3.13
2018-12-12T18:19:27.214Z,1.50
2018-12-12T18:21:57.350Z,0.60
2018-12-12T18:24:25.980Z,0.80
2018-12-12T18:26:58.110Z,0.60
2018-12-12T18:29:34.466Z,0.87
2018-12-12T18:32:08.520Z,0.90
2018-12-12T18:34:41.904Z,1.17
2018-12-12T18:37:14.090Z,1.20
2018-12-12T18:39:46.122Z,0.80
2018-12-12T18:42:20.332Z,5.80
2018-12-12T18:44:58.987Z,10.83
2018-12-12T18:47:33.346Z,10.70
2018-12-12T18:50:18.509Z,9.03
2018-12-12T18:52:52.995Z,9.13
2018-12-12T18:55:27.035Z,11.80
2018-12-12T18:57:59.321Z,7.93
2018-12-12T19:00:34.229Z,11.77
2018-12-12T19:03:09.027Z,7.70
2018-12-12T19:05:44.632Z,8.93
2018-12-12T19:08:18.724Z,8.90
2018-12-12T19:10:54.747Z,10.00
2018-12-12T19:13:28.699Z,10.70
2018-12-12T19:16:03.049Z,10.60
2018-12-12T19:18:34.242Z,10.07
2018-12-12T19:21:08.960Z,11.47
2018-12-12T19:23:45.914Z,8.93
2018-12-12T19:26:19.874Z,8.73
2018-12-12T19:28:52.455Z,10.80
2018-12-12T19:31:26.991Z,6.80
2018-12-12T19:33:55.990Z,10.47
2018-12-12T19:36:30.288Z,11.40
2018-12-12T19:38:58.880Z,8.03
2018-12-12T19:41:27.566Z,9.33
2018-12-12T19:43:56.291Z,8.57
2018-12-12T19:46:30.454Z,10.13
2018-12-12T19:49:02.272Z,11.47
2018-12-12T19:51:36.718Z,8.50
2018-12-12T19:54:10.586Z,9.47
2018-12-12T19:56:42.664Z,9.90
2018-12-12T19:59:25.279Z,11.90
2018-12-12T20:02:02.159Z,9.17
2018-12-12T20:04:36.982Z,13.33
2018-12-12T20:07:11.674Z,9.77
2018-12-12T20:09:57.816Z,10.50
2018-12-12T20:12:32.127Z,10.43
2018-12-12T20:15:00.881Z,13.10
2018-12-12T20:17:53.162Z,15.27
2018-12-12T20:20:21.994Z,11.13
2018-12-12T20:22:51.165Z,12.30
2018-12-12T20:28:21.262Z,14.00
2018-12-12T20:30:50.094Z,15.50
2018-12-12T20:33:37.993Z,10.80
2018-12-12T20:36:07.081Z,12.73
2018-12-12T20:38:39.894Z,8.40
2018-12-12T20:41:21.024Z,14.57
2018-12-12T20:43:57.544Z,9.27
2018-12-12T20:46:32.996Z,10.60
2018-12-12T20:49:10.053Z,11.00
2018-12-12T20:51:59.438Z,11.63
2018-12-12T20:54:38.892Z,9.10
2018-12-12T20:57:13.654Z,11.03
2018-12-12T20:59:50.504Z,9.63
2018-12-12T21:02:19.230Z,10.33
2018-12-12T21:04:48.154Z,11.60
2018-12-12T21:07:16.915Z,10.47
2018-12-12T21:09:45.762Z,9.63
2018-12-12T21:12:15.114Z,11.07
2018-12-12T21:14:44.358Z,10.77
2018-12-12T21:17:13.280Z,11.20
2018-12-12T21:19:47.070Z,11.37
2018-12-12T21:22:15.854Z,11.77
2018-12-12T21:24:45.883Z,8.60
2018-12-12T21:27:15.895Z,10.20
2018-12-12T21:29:44.958Z,12.80
2018-12-12T21:32:25.477Z,10.30
2018-12-12T21:35:04.451Z,12.67
2018-12-12T21:37:43.265Z,8.57
2018-12-12T21:40:18.678Z,10.50
2018-12-12T21:42:54.504Z,12.27
2018-12-12T21:45:26.472Z,0.60
2018-12-12T21:51:02.232Z,0.97
2018-12-12T21:53:31.193Z,0.80
2018-12-12T21:56:05.539Z,1.17
2018-12-12T21:58:35.253Z,0.60
2018-12-12T22:01:04.216Z,1.00
2018-12-12T22:06:40.945Z,0.50
2018-12-12T22:09:10.146Z,2.00
2018-12-12T22:11:38.701Z,0.60
2018-12-12T22:14:07.187Z,0.73
2018-12-12T22:16:43.677Z,1.03
2018-12-12T22:19:12.551Z,0.70
2018-12-12T22:21:47.917Z,2.93
2018-12-12T22:24:26.019Z,0.60
2018-12-12T22:27:00.397Z,0.60
2018-12-12T22:29:41.393Z,0.60
2018-12-12T22:32:17.797Z,0.60
2018-12-12T22:34:49.887Z,0.60
2018-12-12T22:37:21.705Z,0.60
2018-12-12T22:39:57.077Z,1.10
2018-12-12T22:42:35.967Z,0.60
2018-12-12T22:45:10.734Z,0.70
2018-12-12T22:47:42.438Z,0.60
2018-12-12T22:53:00.123Z,0.63
2018-12-12T22:55:30.166Z,1.20
2018-12-12T22:57:58.726Z,0.60
2018-12-12T23:00:39.173Z,1.27
2018-12-12T23:03:14.486Z,1.73
2018-12-12T23:05:43.661Z,0.70
2018-12-12T23:08:18.307Z,0.70
2018-12-12T23:10:50.494Z,0.80
2018-12-12T23:13:24.878Z,0.60
2018-12-12T23:15:59.599Z,1.03
2018-12-12T23:18:34.036Z,0.60
2018-12-12T23:21:09.131Z,2.27
2018-12-12T23:23:43.226Z,0.60
2018-12-12T23:26:12.619Z,3.70
2018-12-12T23:28:42.648Z,0.50
2018-12-12T23:31:22.440Z,8.47
2018-12-12T23:33:57.522Z,10.80
2018-12-12T23:36:30.030Z,12.63
2018-12-12T23:39:01.479Z,11.50
2018-12-12T23:41:42.280Z,11.53
2018-12-12T23:44:16.329Z,10.80
2018-12-12T23:46:51.175Z,12.23
2018-12-12T23:49:23.656Z,12.43
2018-12-12T23:51:52.617Z,10.23
2018-12-12T23:54:21.230Z,11.47
2018-12-12T23:56:49.891Z,11.60
2018-12-12T23:59:19.407Z,11.17
